createdAt,value
2022-08-22T00:02:23.754Z,20.01
2022-08-22T00:03:00.471Z,21.81
2022-08-22T00:03:10.012Z,20.24
2022-08-22T00:03:10.898Z,19.94
2022-08-22T00:03:11.735Z,20.13
2022-08-22T00:05:26.742Z,19.98
2022-08-22T00:08:03.797Z,19.96
2022-08-22T00:10:48.819Z,20.03
2022-08-22T00:13:25.574Z,19.98
2022-08-22T00:16:04.194Z,20.03
2022-08-22T00:19:00.301Z,19.83
2022-08-22T00:21:39.938Z,19.73
2022-08-22T00:24:24.359Z,19.76
2022-08-22T00:27:15.094Z,19.73
2022-08-22T00:29:52.439Z,19.64
2022-08-22T00:32:33.565Z,19.60
2022-08-22T00:35:08.047Z,19.58
2022-08-22T00:37:53.247Z,19.56
2022-08-22T00:40:57.565Z,19.58
2022-08-22T00:43:49.530Z,19.60
2022-08-22T00:46:35.311Z,19.60
2022-08-22T00:49:23.359Z,19.55
2022-08-22T00:52:16.503Z,19.56
2022-08-22T00:54:52.618Z,19.56
2022-08-22T00:57:35.635Z,19.58
2022-08-22T01:00:23.060Z,19.54
2022-08-22T01:03:05.556Z,19.49
2022-08-22T01:06:03.093Z,19.51
2022-08-22T01:09:04.195Z,19.54
2022-08-22T01:11:43.149Z,19.59
2022-08-22T01:14:38.211Z,19.64
2022-08-22T01:17:11.027Z,19.64
2022-08-22T01:19:46.990Z,19.63
2022-08-22T01:22:38.279Z,19.70
2022-08-22T01:25:58.579Z,19.87
2022-08-22T01:28:47.124Z,19.91
2022-08-22T01:31:52.323Z,19.91
2022-08-22T01:34:25.255Z,19.95
2022-08-22T01:37:15.946Z,19.88
2022-08-22T01:40:21.170Z,19.89
2022-08-22T01:42:59.942Z,19.95
2022-08-22T01:45:53.406Z,19.92
2022-08-22T01:48:26.129Z,19.91
2022-08-22T01:51:35.017Z,19.91
2022-08-22T01:54:34.851Z,19.90
2022-08-22T01:57:07.943Z,19.92
2022-08-22T01:59:44.682Z,20.06
2022-08-22T02:02:38.858Z,19.95
2022-08-22T02:05:26.137Z,19.87
2022-08-22T02:08:03.528Z,20.02
2022-08-22T02:11:04.619Z,20.01
2022-08-22T02:13:54.589Z,19.95
2022-08-22T02:16:48.333Z,19.93
2022-08-22T02:19:15.335Z,19.90
2022-08-22T02:21:58.932Z,20.05
2022-08-22T02:24:50.573Z,20.03
2022-08-22T02:27:31.391Z,19.91
2022-08-22T02:30:04.568Z,19.72
2022-08-22T02:32:52.018Z,19.76
2022-08-22T02:35:28.524Z,19.78
2022-08-22T02:38:24.449Z,19.82
2022-08-22T02:41:06.401Z,19.90
2022-08-22T02:43:44.601Z,19.89
2022-08-22T02:46:25.969Z,19.85
2022-08-22T02:49:03.120Z,19.77
2022-08-22T02:51:45.556Z,19.71
2022-08-22T02:54:33.941Z,19.54
2022-08-22T02:57:14.048Z,19.46
2022-08-22T03:00:31.334Z,19.47
2022-08-22T03:02:59.947Z,19.39
2022-08-22T03:05:41.741Z,19.42
2022-08-22T03:08:17.624Z,19.31
2022-08-22T03:10:54.895Z,19.31
2022-08-22T03:13:36.791Z,19.31
2022-08-22T03:16:13.750Z,19.33
2022-08-22T03:19:02.387Z,19.39
2022-08-22T03:21:45.832Z,19.40
2022-08-22T03:24:20.427Z,19.46
2022-08-22T03:26:50.877Z,19.52
2022-08-22T03:29:27.482Z,19.56
2022-08-22T03:32:19.269Z,19.57
2022-08-22T03:35:09.966Z,19.50
2022-08-22T03:37:37.941Z,19.52
2022-08-22T03:40:05.061Z,19.63
2022-08-22T03:42:44.387Z,19.63
2022-08-22T03:45:20.428Z,19.62
2022-08-22T03:48:21.424Z,19.58
2022-08-22T03:51:04.938Z,19.54
2022-08-22T03:53:37.888Z,19.45
2022-08-22T03:56:42.392Z,19.50
2022-08-22T03:59:42.679Z,19.48
2022-08-22T04:02:43.142Z,19.41
2022-08-22T04:05:36.940Z,19.46
2022-08-22T04:08:21.987Z,19.50
2022-08-22T04:11:17.168Z,19.57
2022-08-22T04:13:44.233Z,19.67
2022-08-22T04:16:20.957Z,19.67
2022-08-22T04:19:05.913Z,19.71
2022-08-22T04:22:08.636Z,19.72
2022-08-22T04:24:48.938Z,19.66
2022-08-22T04:27:42.476Z,19.60
2022-08-22T04:30:31.966Z,19.57
2022-08-22T04:33:19.191Z,19.53
2022-08-22T04:36:15.499Z,19.56
2022-08-22T04:38:50.684Z,19.67
2022-08-22T04:41:41.734Z,19.62
2022-08-22T04:44:17.392Z,19.56
2022-08-22T04:46:47.064Z,19.48
2022-08-22T04:49:19.592Z,19.52
2022-08-22T04:52:13.014Z,19.60
2022-08-22T04:55:15.062Z,19.74
2022-08-22T04:57:54.394Z,19.84
2022-08-22T05:00:21.798Z,19.74
2022-08-22T05:02:52.719Z,19.55
2022-08-22T05:05:23.992Z,19.75
2022-08-22T05:07:58.202Z,19.30
2022-08-22T05:10:29.275Z,19.26
2022-08-22T05:13:04.319Z,19.14
2022-08-22T05:15:36.131Z,19.08
2022-08-22T05:18:16.658Z,18.83
2022-08-22T05:20:49.312Z,18.61
2022-08-22T05:23:24.750Z,18.57
2022-08-22T05:25:56.868Z,18.33
2022-08-22T05:28:53.220Z,18.16
2022-08-22T05:31:29.807Z,18.29
2022-08-22T05:34:07.589Z,18.47
2022-08-22T05:36:43.480Z,18.46
2022-08-22T05:39:14.978Z,18.55
2022-08-22T05:41:43.135Z,18.50
2022-08-22T05:44:23.033Z,18.81
2022-08-22T05:47:05.145Z,18.82
2022-08-22T05:49:39.055Z,18.86
2022-08-22T05:52:27.769Z,18.78
2022-08-22T05:55:05.441Z,18.78
2022-08-22T05:57:38.214Z,18.53
2022-08-22T06:00:13.034Z,18.63
2022-08-22T06:03:01.892Z,18.47
2022-08-22T06:05:33.126Z,18.50
2022-08-22T06:08:25.147Z,18.62
2022-08-22T06:11:07.708Z,18.59
2022-08-22T06:13:41.523Z,18.84
2022-08-22T06:16:17.601Z,18.79
2022-08-22T06:18:46.132Z,18.89
2022-08-22T06:21:46.780Z,18.77
2022-08-22T06:24:21.526Z,18.99
2022-08-22T06:26:52.408Z,19.19
2022-08-22T06:29:32.185Z,18.83
2022-08-22T06:32:02.712Z,18.87
2022-08-22T06:34:37.046Z,19.13
2022-08-22T06:37:07.572Z,19.43
2022-08-22T06:39:38.570Z,19.18
2022-08-22T06:42:16.932Z,19.18
2022-08-22T06:44:50.459Z,19.23
2022-08-22T06:47:26.460Z,19.39
2022-08-22T06:50:01.290Z,19.68
2022-08-22T06:52:32.826Z,19.60
2022-08-22T06:55:06.040Z,19.73
2022-08-22T06:57:40.331Z,20.25
2022-08-22T07:00:12.976Z,20.15
2022-08-22T07:02:44.189Z,20.11
2022-08-22T07:05:17.788Z,19.95
2022-08-22T07:07:45.183Z,19.67
2022-08-22T07:10:16.627Z,19.63
2022-08-22T07:12:47.087Z,19.81
2022-08-22T07:15:35.482Z,19.64
2022-08-22T07:18:07.994Z,19.92
2022-08-22T07:20:38.686Z,20.15
2022-08-22T07:23:07.354Z,20.20
2022-08-22T07:25:49.284Z,20.39
2022-08-22T07:28:36.842Z,20.57
2022-08-22T07:31:58.557Z,20.39
2022-08-22T07:34:52.092Z,20.37
2022-08-22T07:37:28.794Z,19.96
2022-08-22T07:40:21.999Z,19.81
2022-08-22T07:43:00.019Z,19.64
2022-08-22T07:45:52.624Z,19.68
2022-08-22T07:48:38.301Z,19.41
2022-08-22T07:51:28.484Z,19.62
2022-08-22T07:54:15.760Z,19.10
2022-08-22T07:57:18.746Z,18.94
2022-08-22T07:59:55.657Z,18.90
2022-08-22T08:02:24.680Z,18.76
2022-08-22T08:04:55.171Z,18.70
2022-08-22T08:07:27.886Z,18.78
2022-08-22T08:10:14.546Z,18.68
2022-08-22T08:12:57.954Z,18.73
2022-08-22T08:15:33.130Z,18.62
2022-08-22T08:18:05.701Z,18.70
2022-08-22T08:20:36.173Z,18.53
2022-08-22T08:23:06.948Z,18.40
2022-08-22T08:25:49.195Z,18.28
2022-08-22T08:28:34.856Z,17.73
2022-08-22T08:31:14.815Z,17.84
2022-08-22T08:33:45.595Z,18.13
2022-08-22T08:36:21.842Z,18.02
2022-08-22T08:39:04.167Z,18.06
2022-08-22T08:42:08.574Z,18.07
2022-08-22T08:45:08.099Z,18.20
2022-08-22T08:47:45.870Z,18.19
2022-08-22T08:50:31.583Z,17.93
2022-08-22T08:52:58.842Z,17.99
2022-08-22T08:55:38.618Z,17.96
2022-08-22T08:58:10.319Z,18.03
2022-08-22T09:00:46.175Z,17.99
2022-08-22T09:03:24.032Z,18.13
2022-08-22T09:06:35.969Z,18.34
2022-08-22T09:09:12.811Z,18.41
2022-08-22T09:12:08.928Z,18.68
2022-08-22T09:15:00.007Z,18.39
2022-08-22T09:17:32.875Z,18.18
2022-08-22T09:20:25.291Z,18.25
2022-08-22T09:23:30.207Z,18.45
2022-08-22T09:26:15.865Z,18.63
2022-08-22T09:29:07.350Z,18.46
2022-08-22T09:31:54.025Z,18.84
2022-08-22T09:34:38.303Z,18.93
2022-08-22T09:37:33.573Z,19.15
2022-08-22T09:40:10.487Z,19.29
2022-08-22T09:43:04.556Z,19.11
2022-08-22T09:45:40.857Z,19.18
2022-08-22T09:48:22.133Z,19.02
2022-08-22T09:51:08.458Z,18.74
2022-08-22T09:54:00.012Z,18.90
2022-08-22T09:56:53.026Z,18.75
2022-08-22T09:59:44.893Z,18.68
2022-08-22T10:02:24.298Z,18.62
2022-08-22T10:05:41.339Z,18.77
2022-08-22T10:08:27.404Z,18.68
2022-08-22T10:11:09.911Z,18.86
2022-08-22T10:14:04.205Z,18.99
2022-08-22T10:16:57.380Z,18.86
2022-08-22T10:19:40.589Z,19.10
2022-08-22T10:22:13.199Z,19.15
2022-08-22T10:24:46.445Z,18.97
2022-08-22T10:27:19.696Z,18.82
2022-08-22T10:30:32.687Z,18.83
2022-08-22T10:33:26.028Z,19.22
2022-08-22T10:36:12.069Z,18.88
2022-08-22T10:38:47.447Z,18.85
2022-08-22T10:41:41.000Z,18.98
2022-08-22T10:44:21.705Z,19.36
2022-08-22T10:47:01.404Z,19.40
2022-08-22T10:49:35.601Z,19.57
2022-08-22T10:52:15.883Z,19.52
2022-08-22T10:54:52.742Z,19.74
2022-08-22T10:57:45.871Z,19.53
2022-08-22T11:00:49.702Z,19.62
2022-08-22T11:04:04.452Z,19.76
2022-08-22T11:06:45.910Z,19.82
2022-08-22T11:09:38.836Z,19.39
2022-08-22T11:12:34.536Z,19.12
2022-08-22T11:15:08.213Z,19.39
2022-08-22T11:17:54.410Z,19.17
2022-08-22T11:20:59.186Z,19.71
2022-08-22T11:23:39.457Z,19.84
2022-08-22T11:26:16.133Z,19.76
2022-08-22T11:29:13.306Z,19.55
2022-08-22T11:32:10.226Z,19.29
2022-08-22T11:34:50.160Z,19.16
2022-08-22T11:37:47.972Z,19.07
2022-08-22T11:40:27.978Z,19.14
2022-08-22T11:43:17.914Z,19.13
2022-08-22T11:45:52.510Z,19.35
2022-08-22T11:48:48.591Z,19.53
2022-08-22T11:51:57.445Z,19.40
2022-08-22T11:54:53.212Z,19.61
2022-08-22T11:57:26.248Z,19.61
2022-08-22T12:00:04.676Z,19.80
2022-08-22T12:02:55.963Z,19.72
2022-08-22T12:05:29.945Z,19.72
2022-08-22T12:08:09.808Z,19.53
2022-08-22T12:10:54.015Z,19.37
2022-08-22T12:13:49.808Z,19.61
2022-08-22T12:16:21.845Z,19.45
2022-08-22T12:19:05.671Z,18.95
2022-08-22T12:21:42.865Z,18.66
2022-08-22T12:24:32.284Z,18.67
2022-08-22T12:27:48.594Z,18.64
2022-08-22T12:31:07.357Z,18.83
2022-08-22T12:33:41.440Z,18.85
2022-08-22T12:36:26.524Z,18.86
2022-08-22T12:39:00.920Z,18.83
2022-08-22T12:42:05.363Z,18.95
2022-08-22T12:44:47.433Z,18.97
2022-08-22T12:47:51.510Z,18.93
2022-08-22T12:50:50.541Z,18.85
2022-08-22T12:53:29.151Z,18.89
2022-08-22T12:56:05.416Z,18.92
2022-08-22T12:58:51.463Z,19.13
2022-08-22T13:01:19.173Z,19.24
2022-08-22T13:04:04.483Z,19.37
2022-08-22T13:06:37.941Z,19.14
2022-08-22T13:09:28.621Z,19.18
2022-08-22T13:12:02.332Z,19.02
2022-08-22T13:14:34.125Z,18.80
2022-08-22T13:17:10.224Z,18.53
2022-08-22T13:19:59.591Z,18.57
2022-08-22T13:22:30.747Z,18.74
2022-08-22T13:25:00.546Z,18.83
2022-08-22T13:27:33.131Z,18.88
2022-08-22T13:30:12.516Z,18.86
2022-08-22T13:32:48.852Z,18.81
2022-08-22T13:35:55.582Z,18.97
2022-08-22T13:38:48.897Z,18.65
2022-08-22T13:41:27.605Z,18.50
2022-08-22T13:44:06.959Z,18.70
2022-08-22T13:46:48.141Z,18.45
2022-08-22T13:49:35.123Z,18.36
2022-08-22T13:52:36.939Z,18.21
2022-08-22T13:55:23.528Z,18.06
2022-08-22T13:58:00.204Z,18.13
2022-08-22T14:00:58.080Z,18.22
2022-08-22T14:03:56.668Z,18.25
2022-08-22T14:06:38.402Z,18.21
2022-08-22T14:09:31.274Z,18.00
2022-08-22T14:12:13.960Z,18.06
2022-08-22T14:14:46.097Z,18.19
2022-08-22T14:17:19.536Z,18.23
2022-08-22T14:19:59.374Z,18.46
2022-08-22T14:22:34.735Z,18.39
2022-08-22T14:25:16.882Z,18.45
2022-08-22T14:28:01.357Z,18.53
2022-08-22T14:30:39.209Z,18.55
2022-08-22T14:33:06.180Z,18.44
2022-08-22T14:35:45.076Z,18.49
2022-08-22T14:38:46.130Z,18.32
2022-08-22T14:41:52.509Z,18.21
2022-08-22T14:44:25.462Z,18.20
2022-08-22T14:46:55.999Z,18.33
2022-08-22T14:49:50.288Z,18.43
2022-08-22T14:52:34.769Z,18.45
2022-08-22T14:55:13.901Z,18.57
2022-08-22T14:57:49.771Z,18.36
2022-08-22T15:00:45.009Z,18.32
2022-08-22T15:03:21.683Z,18.40
2022-08-22T15:05:56.758Z,18.28
2022-08-22T15:08:33.034Z,18.25
2022-08-22T15:11:25.559Z,18.29
2022-08-22T15:14:21.894Z,18.24
2022-08-22T15:16:58.643Z,18.19
2022-08-22T15:19:35.429Z,18.16
2022-08-22T15:22:13.569Z,18.14
2022-08-22T15:25:06.309Z,18.16
2022-08-22T15:27:45.494Z,18.25
2022-08-22T15:30:20.591Z,18.34
2022-08-22T15:32:49.288Z,18.28
2022-08-22T15:35:31.181Z,18.16
2022-08-22T15:38:26.319Z,18.24
2022-08-22T15:40:56.945Z,18.17
2022-08-22T15:43:28.843Z,18.11
2022-08-22T15:46:23.831Z,18.20
2022-08-22T15:48:59.468Z,18.31
2022-08-22T15:51:50.283Z,18.32
2022-08-22T15:54:25.988Z,18.32
2022-08-22T15:56:52.994Z,18.32
2022-08-22T15:59:28.635Z,18.19
2022-08-22T16:02:04.907Z,18.18
2022-08-22T16:04:47.663Z,18.22
2022-08-22T16:07:32.602Z,18.03
2022-08-22T16:10:01.381Z,17.85
2022-08-22T16:12:40.499Z,18.00
2022-08-22T16:15:45.962Z,18.17
2022-08-22T16:18:35.270Z,18.40
2022-08-22T16:21:08.521Z,18.53
2022-08-22T16:23:54.011Z,18.49
2022-08-22T16:26:43.110Z,18.32
2022-08-22T16:29:13.447Z,18.16
2022-08-22T16:31:44.462Z,18.17
2022-08-22T16:34:17.377Z,18.25
2022-08-22T16:37:05.412Z,18.23
2022-08-22T16:39:36.280Z,18.14
2022-08-22T16:42:15.888Z,18.10
2022-08-22T16:44:48.490Z,18.01
2022-08-22T16:47:15.470Z,17.99
2022-08-22T16:49:51.278Z,17.92
2022-08-22T16:52:21.151Z,17.86
2022-08-22T16:55:09.819Z,17.75
2022-08-22T16:58:05.696Z,17.76
2022-08-22T17:00:36.514Z,17.91
2022-08-22T17:03:40.888Z,18.00
2022-08-22T17:06:13.952Z,17.84
2022-08-22T17:08:53.976Z,17.90
2022-08-22T17:12:03.937Z,18.04
2022-08-22T17:14:46.090Z,18.02
2022-08-22T17:17:29.348Z,17.96
2022-08-22T17:19:59.306Z,17.84
2022-08-22T17:23:00.210Z,17.93
2022-08-22T17:25:47.316Z,18.01
2022-08-22T17:28:33.554Z,17.93
2022-08-22T17:31:25.459Z,17.97
2022-08-22T17:34:06.436Z,17.91
2022-08-22T17:37:07.109Z,17.80
2022-08-22T17:40:10.386Z,17.76
2022-08-22T17:42:40.315Z,17.73
2022-08-22T17:45:25.717Z,17.63
2022-08-22T17:48:12.487Z,17.58
2022-08-22T17:50:49.154Z,17.59
2022-08-22T17:53:27.839Z,17.76
2022-08-22T17:56:07.080Z,17.58
2022-08-22T17:59:06.306Z,17.51
2022-08-22T18:01:43.844Z,17.54
2022-08-22T18:04:19.719Z,17.49
2022-08-22T18:06:56.292Z,17.60
2022-08-22T18:09:57.663Z,17.55
2022-08-22T18:12:38.371Z,17.54
2022-08-22T18:15:08.605Z,17.53
2022-08-22T18:17:51.368Z,17.66
2022-08-22T18:20:30.343Z,17.55
2022-08-22T18:23:03.800Z,17.58
2022-08-22T18:25:39.738Z,17.45
2022-08-22T18:28:12.929Z,17.44
2022-08-22T18:31:02.181Z,17.51
2022-08-22T18:33:33.372Z,17.49
2022-08-22T18:36:33.558Z,17.47
2022-08-22T18:39:03.728Z,17.53
2022-08-22T18:41:44.607Z,17.48
2022-08-22T18:44:20.012Z,17.50
2022-08-22T18:46:52.840Z,17.55
2022-08-22T18:49:19.836Z,17.52
2022-08-22T18:52:05.544Z,17.45
2022-08-22T18:55:11.000Z,17.43
2022-08-22T18:58:35.211Z,17.59
2022-08-22T19:01:41.344Z,17.58
2022-08-22T19:04:37.771Z,17.68
2022-08-22T19:07:32.699Z,17.66
2022-08-22T19:10:05.469Z,17.59
2022-08-22T19:13:12.659Z,17.46
2022-08-22T19:15:58.365Z,17.45
2022-08-22T19:18:36.395Z,17.66
2022-08-22T19:21:41.863Z,17.68
2022-08-22T19:24:33.954Z,17.64
2022-08-22T19:27:07.128Z,17.61
2022-08-22T19:29:34.067Z,17.54
2022-08-22T19:32:06.801Z,17.42
2022-08-22T19:34:42.304Z,17.35
2022-08-22T19:37:32.795Z,17.43
2022-08-22T19:40:12.026Z,17.32
2022-08-22T19:42:43.371Z,17.24
2022-08-22T19:45:19.737Z,17.19
2022-08-22T19:47:58.142Z,17.28
2022-08-22T19:50:36.350Z,17.27
2022-08-22T19:53:10.211Z,17.22
2022-08-22T19:55:37.293Z,17.34
2022-08-22T19:58:32.510Z,17.45
2022-08-22T20:01:38.318Z,17.42
2022-08-22T20:04:21.050Z,17.44
2022-08-22T20:07:00.305Z,17.40
2022-08-22T20:09:53.703Z,17.26
2022-08-22T20:12:36.538Z,17.28
2022-08-22T20:15:20.726Z,17.31
2022-08-22T20:20:39.166Z,17.18
2022-08-22T20:23:25.337Z,17.19
2022-08-22T20:25:56.066Z,17.13
2022-08-22T20:28:47.299Z,17.04
2022-08-22T20:31:24.605Z,17.01
2022-08-22T20:33:58.887Z,17.19
2022-08-22T20:36:28.371Z,17.05
2022-08-22T20:39:05.012Z,16.90
2022-08-22T20:41:37.549Z,16.92
2022-08-22T20:44:22.627Z,17.00
2022-08-22T20:46:55.681Z,17.06
2022-08-22T20:49:32.994Z,17.11
2022-08-22T20:52:04.840Z,17.15
2022-08-22T20:54:38.084Z,17.14
2022-08-22T20:57:11.308Z,17.19
2022-08-22T20:59:41.937Z,17.17
2022-08-22T21:02:19.078Z,17.16
2022-08-22T21:04:57.107Z,17.08
2022-08-22T21:07:29.072Z,17.08
2022-08-22T21:10:36.195Z,17.07
2022-08-22T21:13:21.940Z,17.23
2022-08-22T21:16:14.018Z,17.33
2022-08-22T21:18:45.976Z,17.19
2022-08-22T21:21:31.579Z,17.09
2022-08-22T21:24:09.419Z,17.02
2022-08-22T21:26:46.328Z,17.08
2022-08-22T21:29:13.344Z,17.16
2022-08-22T21:31:43.213Z,17.16
2022-08-22T21:34:22.086Z,17.04
2022-08-22T21:36:51.843Z,16.98
2022-08-22T21:39:18.713Z,17.01
2022-08-22T21:42:11.452Z,16.91
2022-08-22T21:44:41.707Z,16.93
2022-08-22T21:47:34.923Z,16.96
2022-08-22T21:50:26.842Z,17.00
2022-08-22T21:52:53.763Z,17.07
2022-08-22T21:55:34.513Z,17.03
2022-08-22T21:58:11.989Z,17.07
2022-08-22T22:00:39.562Z,17.10
2022-08-22T22:03:07.409Z,17.01
2022-08-22T22:05:34.525Z,17.03
2022-08-22T22:08:02.726Z,17.05
2022-08-22T22:10:29.872Z,17.01
2022-08-22T22:12:59.017Z,17.12
2022-08-22T22:15:29.083Z,17.21
2022-08-22T22:17:56.234Z,17.26
2022-08-22T22:20:26.308Z,17.23
2022-08-22T22:22:56.966Z,17.13
2022-08-22T22:25:39.652Z,17.08
2022-08-22T22:28:18.777Z,17.02
2022-08-22T22:30:50.602Z,16.98
2022-08-22T22:33:19.248Z,16.95
2022-08-22T22:35:47.500Z,17.05
2022-08-22T22:38:15.162Z,16.98
2022-08-22T22:40:42.462Z,17.01
2022-08-22T22:43:10.532Z,16.94
2022-08-22T22:45:38.274Z,16.99
2022-08-22T22:48:06.725Z,17.03
2022-08-22T22:50:38.189Z,16.96
2022-08-22T22:53:05.241Z,16.97
2022-08-22T22:55:37.337Z,17.01
2022-08-22T22:58:08.718Z,17.00
2022-08-22T23:00:37.585Z,17.04
2022-08-22T23:03:06.736Z,17.09
2022-08-22T23:05:35.024Z,17.09
2022-08-22T23:08:02.613Z,17.10
2022-08-22T23:10:31.640Z,17.17
2022-08-22T23:12:59.237Z,17.24
2022-08-22T23:15:26.703Z,17.17
2022-08-22T23:17:54.287Z,17.17
2022-08-22T23:20:21.325Z,17.08
2022-08-22T23:22:48.401Z,17.05
2022-08-22T23:25:16.029Z,17.13
2022-08-22T23:27:43.411Z,17.03
2022-08-22T23:30:11.298Z,16.99
2022-08-22T23:32:38.762Z,16.99
2022-08-22T23:35:06.811Z,16.99
2022-08-22T23:37:33.923Z,16.98
2022-08-22T23:40:01.128Z,16.94
2022-08-22T23:42:29.555Z,16.92
2022-08-22T23:44:56.582Z,16.87
2022-08-22T23:47:23.567Z,16.74
2022-08-22T23:49:50.540Z,16.78
2022-08-22T23:52:17.516Z,16.87
2022-08-22T23:54:44.682Z,16.96
2022-08-22T23:57:12.769Z,16.87
2022-08-22T23:59:46.427Z,16.79
